Flight Track Log - Related Links

Times and Time Zones

All times are in EDT time to prevent confusion due to time zone crossing. See the EJA619 flight status page for this flight to view local times or setup timezone preferences in your user account.

Time Position Orientation Groundspeed Altitude Reporting Facility
EDT Latitude Longitude Course Direction KTS MPH feet Rate Location/Type
01:09PM 42.1333 -87.9167 56° Northeast 149 171 1,800  Level Chicago TRACON
01:10PM 42.1667 -87.8500 56° Northeast 214 246 3,700 2,873 Climbing Chicago TRACON
01:11PM 42.1281 -87.7681 122° Southeast 234 269 8,600 3,391 Climbing Chicago Center
01:12PM 42.0547 -87.7678 180° South 275 316 11,500 3,048 Climbing Chicago Center
01:13PM 41.9697 -87.7847 188° South 305 351 14,900 3,194 Climbing Chicago Center
01:14PM 41.8669 -87.7925 183° South 311 358 18,100 2,758 Climbing Chicago Center
01:15PM 41.7792 -87.7489 160° South 335 386 20,600 1,935 Climbing Chicago Center
01:16PM 41.6833 -87.7003 159° South 362 417 22,100 1,500 Climbing Chicago Center
01:17PM 41.5797 -87.6483 159° South 389 448 23,700 1,500 Climbing Chicago Center
01:18PM 41.4753 -87.5964 160° South 397 457 25,200 1,355 Climbing Chicago Center
01:19PM 41.3664 -87.5581 165° South 405 466 26,500 871 Climbing Chicago Center
01:20PM 41.2550 -87.5228 167° South 409 471 27,000 242 Climbing Chicago Center
01:21PM 41.1239 -87.4364 154° Southeast 437 503 27,000  Level Chicago Center
01:22PM 41.0133 -87.3664 154° Southeast 440 506 27,000  Level Chicago Center
01:23PM 40.9058 -87.2972 154° Southeast 432 497 27,000  Level Chicago Center
01:24PM 40.8006 -87.2289 154° Southeast 425 489 27,000  Level Chicago Center
01:25PM 40.7039 -87.1686 155° Southeast 388 447 27,000  Level Chicago Center
01:26PM 40.6092 -87.1089 154° Southeast 379 436 27,000  Level Chicago Center
01:27PM 40.5053 -87.0419 154° Southeast 372 428 27,000  Level Chicago Center
01:28PM 40.4131 -86.9839 154° Southeast 369 425 27,000  Level Chicago Center
01:30PM 40.3219 -86.9261 154° Southeast 366 421 27,000  Level Chicago Center
01:31PM 40.2114 -86.8569 154° Southeast 368 423 27,000  Level Chicago Center
01:32PM 40.1189 -86.7992 154° Southeast 370 426 27,000  Level Chicago Center
01:32PM 40.0631 -86.7636 154° Southeast 369 425 27,000  Level Indianapolis Center
01:33PM 39.9711 -86.7072 155° Southeast 368 423 27,000  Level Indianapolis Center
01:34PM 39.8806 -86.6494 154° Southeast 366 421 27,000  Level Indianapolis Center
01:35PM 39.7900 -86.5944 155° Southeast 365 420 27,000  Level Indianapolis Center
01:36PM 39.6819 -86.5272 154° Southeast 364 419 27,000 -341 Level Indianapolis Center
01:37PM 39.5906 -86.4719 155° Southeast 367 422 26,300 -823 Descending Indianapolis Center
01:38PM 39.4956 -86.4119 154° Southeast 381 438 25,300 -968 Descending Indianapolis Center
01:39PM 39.3981 -86.3519 155° Southeast 390 449 24,300 -968 Descending Indianapolis Center
01:40PM 39.3006 -86.2931 155° Southeast 390 449 23,300 -629 Descending Indianapolis Center
01:41PM 39.1850 -86.2225 155° Southeast 384 442 23,000 -145 Descending Indianapolis Center
01:43PM 39.0944 -86.1681 155° Southeast 367 422 23,000  Level Indianapolis Center
01:44PM 39.0042 -86.1133 155° Southeast 361 415 23,000 -244 Level Indianapolis Center
01:45PM 38.9156 -86.0594 155° Southeast 355 409 22,500 -732 Descending Indianapolis Center
01:46PM 38.8242 -86.0058 155° Southeast 368 423 21,500 -1,065 Descending Indianapolis Center
01:47PM 38.7158 -85.9217 149° Southeast 378 435 20,300 -1,161 Descending Indianapolis Center
01:48PM 38.6517 -85.8097 126° Southeast 389 448 19,100 -1,065 Descending Indianapolis Center
01:49PM 38.5950 -85.6936 122° Southeast 384 442 18,100 -823 Descending Indianapolis Center
01:50PM 38.5367 -85.5794 123° Southeast 381 438 17,400 -823 Descending Indianapolis Center
01:51PM 38.4803 -85.4681 123° Southeast 374 430 16,400 -1,210 Descending Indianapolis Center
01:52PM 38.4233 -85.3592 124° Southeast 369 425 14,900 -1,645 Descending Indianapolis Center
01:53PM 38.3683 -85.2461 122° Southeast 373 429 13,000 -1,902 Descending Indianapolis Center
01:54PM 38.3039 -85.1250 124° Southeast 347 399 11,000 -976 Descending Indianapolis Center
01:55PM 38.2483 -85.0225 125° Southeast 348 400 11,000 -387 Level Indianapolis Center
01:56PM 38.1878 -84.9344 131° Southeast 333 383 10,200 -1,548 Descending Indianapolis Center
01:57PM 38.1356 -84.8611 132° Southeast 287 330 7,800 -2,274 Descending Indianapolis Center
01:58PM 38.0822 -84.7881 133° Southeast 283 326 5,500 -2,081 Descending Indianapolis Center
01:59PM 38.0339 -84.7211 132° Southeast 269 310 3,500 -1,415 Descending Indianapolis Center
02:00PM 37.9967 -84.6511 124° Southeast 255 293 2,600 -885 Descending Indianapolis Center
02:02PM 38.0333 -84.6000 122° Southeast  Level FlightAware Approximate
02:09PM 38.0368 -84.6086 122° Southeast  Level Estimated

Login

Don't have an account? Register now (free) for customized features, flight alerts, and more!